Latest Weather Observations for Sydney Harbour

IDN60901

Issued at 4:41 pm EDT Saturday 5 December 2020 (issued every 10 minutes, with the page automatically refreshed every 10 minutes)

About weather observations | Map of Sydney area stations | Latest observations for Sydney area | Other Formats
Station Details ID: 066196 Name: WEDDING CAKE WEST Lat: -33.84 Lon: 151.26 Height: 6.0 m
Data from the previous 72 hours. | See also: Recent months at Sydney Harbour
Date/Time
EDT
Temp
°C
App
Temp
°C
Dew
Point
°C
Rel
Hum
%
Delta-T
°C
Wind Press
QNH
hPa
Press
MSL
hPa
Rain since
9am
mm
Dir  Spd
km/h
Gust
km/h
Spd
kts
Gust
kts
05/04:30pm 21.6 - - - - NNE 24 28 13 15 - - -
05/04:00pm 21.8 - - - - NNE 20 24 11 13 - - -
05/03:30pm 21.8 - - - - NNE 19 22 10 12 - - -
05/03:00pm 22.1 - - - - NE 17 20 9 11 - - -
05/02:30pm 22.0 - - - - NNE 17 20 9 11 - - -
05/02:00pm 21.6 - - - - NNE 15 20 8 11 - - -
05/01:30pm 21.5 - - - - NE 17 20 9 11 - - -
05/01:00pm 21.6 - - - - NE 13 15 7 8 - - -
05/12:30pm 21.8 - - - - ENE 15 17 8 9 - - -
05/12:00pm 21.5 - - - - NNE 13 15 7 8 - - -
05/11:30am 21.3 - - - - NE 11 13 6 7 - - -
05/11:00am 21.3 - - - - ENE 17 19 9 10 - - -
05/10:30am 21.2 - - - - NE 15 17 8 9 - - -
05/10:00am 21.0 - - - - NE 15 19 8 10 - - -
05/09:30am 21.0 - - - - NE 13 17 7 9 - - -
05/09:00am 21.1 - - - - ENE 15 19 8 10 - - -
05/08:30am 21.2 - - - - E 19 22 10 12 - - -
05/08:00am 21.2 - - - - E 20 26 11 14 - - -
05/07:30am 21.0 - - - - E 17 22 9 12 - - -
05/07:00am 20.9 - - - - ESE 17 20 9 11 - - -
05/06:30am 20.7 - - - - ESE 19 24 10 13 - - -
05/06:00am 20.7 - - - - ESE 17 24 9 13 - - -
05/05:30am 20.6 - - - - ESE 17 22 9 12 - - -
05/05:00am 20.6 - - - - SE 19 24 10 13 - - -
05/04:30am 20.8 - - - - SSE 17 22 9 12 - - -
05/04:00am 20.9 - - - - SE 20 24 11 13 - - -
05/03:30am 20.9 - - - - SE 19 26 10 14 - - -
05/03:00am 21.0 - - - - S 17 20 9 11 - - -
05/02:30am 20.8 - - - - S 19 24 10 13 - - -
05/02:00am 20.9 - - - - S 19 24 10 13 - - -
05/01:30am 21.0 - - - - S 20 26 11 14 - - -
05/01:00am 21.0 - - - - S 19 26 10 14 - - -
05/12:30am 21.2 - - - - S 17 22 9 12 - - -
05/12:00am 21.2 - - - - S 19 24 10 13 - - -
 
Date/Time
EDT
Temp
°C
App
Temp
°C
Dew
Point
°C
Rel
Hum
%
Delta-T
°C
Wind Press
QNH
hPa
Press
MSL
hPa
Rain since
9am
mm
Dir  Spd
km/h
Gust
km/h
Spd
kts
Gust
kts
04/11:30pm 21.1 - - - - S 22 30 12 16 - - -
04/11:00pm 21.1 - - - - S 26 32 14 17 - - -
04/10:30pm 21.2 - - - - S 28 37 15 20 - - -
04/10:00pm 21.8 - - - - SSE 20 24 11 13 - - -
04/09:30pm 22.4 - - - - SSE 17 22 9 12 - - -
04/09:00pm 22.9 - - - - SE 19 33 10 18 - - -
04/08:30pm 23.2 - - - - N 20 24 11 13 - - -
04/08:00pm 22.9 - - - - NNE 20 26 11 14 - - -
04/07:30pm 22.9 - - - - NNE 22 30 12 16 - - -
04/07:00pm 22.7 - - - - NNE 22 26 12 14 - - -
04/06:30pm 22.4 - - - - NNE 20 22 11 12 - - -
04/06:00pm 22.4 - - - - N 20 20 11 11 - - -
04/05:30pm 22.4 - - - - N 20 20 11 11 - - -
04/05:00pm 22.9 - - - - NE 17 19 9 10 - - -
04/04:30pm 22.2 - - - - NE 15 17 8 9 - - -
04/04:00pm 22.8 - - - - ENE 15 19 8 10 - - -
04/03:30pm 23.6 - - - - E 17 17 9 9 - - -
04/03:00pm 22.1 - - - - NE 15 19 8 10 - - -
04/02:30pm 21.8 - - - - ENE 19 22 10 12 - - -
04/02:00pm 21.7 - - - - ENE 19 22 10 12 - - -
04/01:30pm 21.5 - - - - ENE 19 22 10 12 - - -
04/01:00pm 21.1 - - - - ENE 20 26 11 14 - - -
04/12:30pm 21.2 - - - - ENE 20 22 11 12 - - -
04/12:00pm 21.9 - - - - E 17 19 9 10 - - -
04/11:30am 23.5 - - - - E 13 15 7 8 - - -
04/11:00am 22.5 - - - - SE 17 19 9 10 - - -
04/10:30am 22.8 - - - - SE 11 15 6 8 - - -
04/10:00am 23.4 - - - - ESE 9 13 5 7 - - -
04/09:30am 22.5 - - - - SSE 9 11 5 6 - - -
04/09:00am 21.7 - - - - SSW 6 7 3 4 - - -
04/08:30am 21.3 - - - - SSW 13 19 7 10 - - -
04/08:00am 20.9 - - - - SW 13 17 7 9 - - -
04/07:30am 20.6 - - - - SW 17 20 9 11 - - -
04/07:00am 20.5 - - - - SW 22 28 12 15 - - -
04/06:30am 20.3 - - - - WSW 13 17 7 9 - - -
04/06:00am 19.9 - - - - WNW 6 9 3 5 - - -
04/05:30am 19.7 - - - - WSW 11 13 6 7 - - -
04/05:00am 19.7 - - - - WSW 11 13 6 7 - - -
04/04:30am 19.8 - - - - WSW 11 13 6 7 - - -
04/04:00am 19.5 - - - - SW 6 9 3 5 - - -
04/03:30am 19.8 - - - - NW 6 7 3 4 - - -
04/03:00am 20.0 - - - - W 7 9 4 5 - - -
04/02:30am 20.1 - - - - SW 6 6 3 3 - - -
04/02:00am 20.3 - - - - SW 2 7 1 4 - - -
04/01:30am 20.4 - - - - SW 7 9 4 5 - - -
04/01:00am 20.5 - - - - NW 6 9 3 5 - - -
04/12:30am 20.6 - - - - NNW 9 11 5 6 - - -
04/12:00am 20.7 - - - - N 11 15 6 8 - - -
 
Date/Time
EDT
Temp
°C
App
Temp
°C
Dew
Point
°C
Rel
Hum
%
Delta-T
°C
Wind Press
QNH
hPa
Press
MSL
hPa
Rain since
9am
mm
Dir  Spd
km/h
Gust
km/h
Spd
kts
Gust
kts
03/11:30pm 20.9 - - - - NNE 9 15 5 8 - - -
03/11:00pm 21.0 - - - - N 13 19 7 10 - - -
03/10:30pm 21.1 - - - - N 19 24 10 13 - - -
03/10:00pm 21.0 - - - - N 19 24 10 13 - - -
03/09:30pm 20.7 - - - - N 15 22 8 12 - - -
03/09:00pm 20.4 - - - - N 20 24 11 13 - - -
03/08:30pm 20.8 - - - - NNE 22 24 12 13 - - -
03/08:00pm 20.8 - - - - N 20 28 11 15 - - -
03/07:30pm 21.0 - - - - NNE 17 20 9 11 - - -
03/07:00pm 20.8 - - - - NNE 17 20 9 11 - - -
03/06:30pm 20.9 - - - - NNE 19 24 10 13 - - -
03/06:00pm 20.9 - - - - NNE 24 28 13 15 - - -
03/05:30pm 20.6 - - - - NNE 20 24 11 13 - - -
03/05:00pm 20.5 - - - - NNE 22 26 12 14 - - -
03/04:30pm 20.4 - - - - NNE 26 32 14 17 - - -
03/04:00pm 20.6 - - - - NNE 28 33 15 18 - - -
03/03:30pm 20.6 - - - - NNE 28 32 15 17 - - -
03/03:00pm 20.3 - - - - NNE 22 28 12 15 - - -
03/02:30pm 20.0 - - - - NNE 32 35 17 19 - - -
03/02:00pm 20.5 - - - - NNE 30 41 16 22 - - -
03/01:30pm 20.5 - - - - NNE 20 24 11 13 - - -
03/01:00pm 20.4 - - - - NNE 24 30 13 16 - - -
03/12:30pm 20.3 - - - - NNE 22 30 12 16 - - -
03/12:00pm 19.5 - - - - NNE 20 24 11 13 - - -
03/11:30am 19.6 - - - - NNE 32 37 17 20 - - -
03/11:00am 20.0 - - - - NNE 26 30 14 16 - - -
03/10:30am 20.1 - - - - NNE 28 32 15 17 - - -
03/10:00am 20.6 - - - - NNE 20 26 11 14 - - -
03/09:30am 20.6 - - - - NNE 24 26 13 14 - - -
03/09:00am 20.6 - - - - NE 22 28 12 15 - - -
03/08:30am 20.5 - - - - NE 22 26 12 14 - - -
03/08:00am 20.4 - - - - NE 24 28 13 15 - - -
03/07:30am 20.3 - - - - NE 20 26 11 14 - - -
03/07:00am 20.2 - - - - NE 20 26 11 14 - - -
03/06:30am 20.0 - - - - ENE 20 24 11 13 - - -
03/06:00am 20.0 - - - - ENE 19 24 10 13 - - -
03/05:30am 20.0 - - - - ENE 20 26 11 14 - - -
03/05:00am 19.9 - - - - ENE 20 26 11 14 - - -
03/04:30am 19.9 - - - - ENE 20 26 11 14 - - -
03/04:00am 19.8 - - - - ENE 19 24 10 13 - - -
03/03:30am 19.9 - - - - E 20 26 11 14 - - -
03/03:00am 20.0 - - - - E 19 24 10 13 - - -
03/02:30am 20.0 - - - - E 19 22 10 12 - - -
03/02:00am 19.9 - - - - ESE 19 22 10 12 - - -
03/01:30am 18.9 - - - - SE 9 13 5 7 - - -
03/01:00am 18.6 - - - - ESE 13 19 7 10 - - -
03/12:30am 18.5 - - - - ESE 13 17 7 9 - - -
03/12:00am 18.3 - - - - ESE 19 24 10 13 - - -
 
Date/Time
EDT
Temp
°C
App
Temp
°C
Dew
Point
°C
Rel
Hum
%
Delta-T
°C
Wind Press
QNH
hPa
Press
MSL
hPa
Rain since
9am
mm
Dir  Spd
km/h
Gust
km/h
Spd
kts
Gust
kts
02/11:30pm 18.9 - - - - ESE 20 26 11 14 - - -
02/11:00pm 19.1 - - - - ESE 24 28 13 15 - - -
02/10:30pm 19.0 - - - - ESE 22 28 12 15 - - -
02/10:00pm 19.6 - - - - ESE 15 22 8 12 - - -
02/09:30pm 19.6 - - - - ESE 19 24 10 13 - - -
02/09:00pm 20.0 - - - - E 20 32 11 17 - - -
02/08:30pm 20.1 - - - - ESE 22 33 12 18 - - -
02/08:00pm 20.2 - - - - E 22 30 12 16 - - -
02/07:30pm 20.4 - - - - ESE 24 30 13 16 - - -
02/07:00pm 20.4 - - - - E 20 26 11 14 - - -
02/06:30pm 20.4 - - - - E 20 32 11 17 - - -
02/06:00pm 20.6 - - - - E 20 26 11 14 - - -
02/05:30pm 20.7 - - - - ESE 19 24 10 13 - - -
02/05:00pm 20.7 - - - - ESE 24 28 13 15 - - -

Latest Capital City Observations: Canberra | Sydney | Melbourne | Brisbane | Adelaide | Perth | Hobart | Darwin

Other formats

Comma delimited format used in spreadsheet applications
http://www.bom.gov.au/fwo/IDN60901/IDN60901.95766.axf

JavaScript Object Notation format (JSON) in row-major order
http://www.bom.gov.au/fwo/IDN60901/IDN60901.95766.json

Data quality

Most of these data are generated automatically and are frequently updated. Quality checks on data are not normally performed. It is possible for incorrect values to appear. Refer to information at About Latest Weather Observations and please check the disclaimer before using these data.